Observations for ABERDEEN DYCE, United Kingdom (EGPD)

EGPD 201950Z AUTO 21005KT 9999 BKN037 10/08 Q1008   
EGPD 201920Z AUTO 21006KT 9999 SCT038 10/08 Q1007   
EGPD 201850Z AUTO 20010KT 9999 BKN037 11/08 Q1007 NOSIG 
EGPD 201820Z AUTO 21011KT 9999 NCD 11/08 Q1006 NOSIG
EGPD 201750Z AUTO 20016KT 9999 SCT040 11/08 Q1006 NOSIG 
EGPD 201720Z AUTO 21007KT 190V260 9999 SCT040 11/08 Q1006 NOSIG 
EGPD 201650Z AUTO 20012KT 9999 NCD 12/08 Q1006 NOSIG
EGPD 201620Z AUTO 19014KT 9999 SCT038 12/08 Q1005 NOSIG 
EGPD 201550Z 19011KT 9999 SCT032 13/08 Q1005 NOSIG  
EGPD 201550Z AUTO 19011KT 9999 NCD 13/08 Q1005 NOSIG
EGPD 201520Z AUTO 20017KT 9999 SCT033 13/08 Q1005 NOSIG 
EGPD 201450Z AUTO 20017KT 9999 SCT028 13/08 Q1005 NOSIG 
EGPD 201420Z AUTO 21018G28KT 9999 BKN025 12/08 Q1005 NOSIG  
EGPD 201350Z 19017KT 9999 SCT024 SCT034 12/08 Q1005 NOSIG   
EGPD 201320Z 20014KT 9999 FEW021 SCT028 12/08 Q1005 NOSIG   
EGPD 201250Z 20016KT 9999 FEW020 SCT023 11/08 Q1005 NOSIG   
EGPD 201220Z 20017KT 9999 FEW018 SCT022 11/08 Q1005 NOSIG   
EGPD 201150Z 21016KT 9999 FEW018 SCT022 11/08 Q1005 NOSIG   
EGPD 201120Z 20017G28KT 9999 FEW018 SCT022 11/08 Q1005 NOSIG
EGPD 201050Z 21014KT 9999 FEW018 SCT022 11/08 Q1004 NOSIG   
EGPD 201020Z 17009KT 070V220 9999 FEW018 SCT022 11/08 Q1004 NOSIG   
EGPD 200950Z 22008KT 170V280 9999 FEW018 SCT022 11/08 Q1004 NOSIG   
EGPD 200920Z 21009KT 170V240 9999 FEW013 SCT022 11/08 Q1004 TEMPO BKN013
EGPD 200850Z 21011KT 9999 FEW014 SCT020 10/08 Q1004 TEMPO BKN014
EGPD 200820Z 16004KT 120V210 9999 SCT014 09/07 Q1004 TEMPO BKN014   
EGPD 200750Z 17007KT 140V230 9999 FEW013 SCT016 09/07 Q1004 TEMPO BKN013
EGPD 200720Z AUTO 20009KT 9999 FEW015 09/07 Q1003   
EGPD 200650Z AUTO 20012KT 9999 NCD 09/07 Q1003 NOSIG
EGPD 200620Z AUTO 21012KT 9999 NCD 08/07 Q1003 NOSIG
EGPD 200550Z AUTO 21011KT 9999 NCD 08/06 Q1003 NOSIG
EGPD 200520Z AUTO 22008KT 9999 NCD 08/06 Q1003 NOSIG
EGPD 200450Z AUTO 19012KT 9999 NCD 07/06 Q1004 NOSIG
EGPD 200420Z AUTO 20010KT 9999 BKN008/// //////TCU 07/06 Q1004 NOSIG
EGPD 200350Z AUTO 18008KT 150V220 9999 BKN006 OVC010 07/06 Q1004 BECMG SCT006 BKN012
EGPD 200320Z AUTO 16010KT 9000 -RA OVC006 07/06 Q1004 NOSIG 
EGPD 200250Z AUTO 16010KT 7000 -RA OVC005 06/06 Q1005 NOSIG 
EGPD 200220Z AUTO 17014KT 9000 -RA OVC004 06/06 Q1005 NOSIG 
EGPD 200150Z AUTO 17017KT 8000 -RA OVC004/// //////TCU 06/05 Q1005 TEMPO BKN006 
EGPD 200120Z AUTO 17016KT 6000 -RA OVC005/// //////CB 06/05 Q1006 NOSIG 
EGPD 200050Z AUTO 17015KT 5000 -RA OVC006/// //////CB 06/05 Q1006 TEMPO 4000 RA OVC004  
EGPD 200020Z AUTO 17014KT 7000 -RA BKN007/// //////TCU 06/05 Q1007 TEMPO RA BKN004  
EGPD 192350Z AUTO 17010KT 9999 -RA OVC006/// //////TCU 06/05 Q1007 TEMPO BKN004 
EGPD 192320Z AUTO 17012KT 9999 BKN007 06/05 Q1007 NOSIG 
EGPD 192250Z AUTO 17010KT 9999 -RA FEW017 06/04 Q1007 TEMPO BKN012  
EGPD 192220Z AUTO 16008KT 9999 -RA FEW013 SCT024 BKN041 06/03 Q1008 TEMPO BKN012
EGPD 192150Z AUTO 17009KT 9999 NCD 06/03 Q1008 NOSIG
EGPD 192120Z AUTO 19010KT 9999 NCD 07/02 Q1008 NOSIG
EGPD 192050Z AUTO 20006KT 9999 NCD 06/02 Q1008 NOSIG
EGPD 192020Z AUTO 22009KT 9999 NCD 07/02 Q1008 NOSIG
EGPD 191950Z AUTO 21009KT 9999 NCD 07/02 Q1008 NOSIG
EGPD 191920Z 20006KT CAVOK 07/02 Q1008 NOSIG